LCPH

Paphos International Airport

Paphos, Cyprus
TAF LCPH 241130Z 2412/2512 28012KT CAVOK BECMG 2418/2422 34007KT BECMG 2507/2510 28014KT
Issued Valid From Valid To
Sep-24 @ 11:30 UTC
(2 hours ago)
Sep-24 @ 12:00 UTC
(2 hours ago)
Sep-25 @ 12:00 UTC
(in 22 hours)
Sep-24 @ 12:00 to Sep-24 @ 18:00
TAF LCPH 241130Z 2412/2512 28012KT CAVOK
Wind Visibility Clouds Conditions
280° at 12 knots 10,000+ meters
  • No significant clouds
Becoming Sep-24 @ 18:00 to Sep-25 @ 07:00
BECMG 2418/2422 34007KT
Wind Visibility Clouds Conditions
340° at 7 knots 10,000+ meters
  • No significant clouds
Becoming Sep-25 @ 07:00 to Sep-25 @ 12:00
BECMG 2507/2510 28014KT
Wind Visibility Clouds Conditions
280° at 14 knots 10,000+ meters
  • No significant clouds
TAF LCPH 241130Z 2412/2512 28012KT CAVOK BECMG 2418/2422 34007KT BECMG 2507/2510 28014KT
Issued Sep-24 @ 11:30 UTC
(2 hours ago)
Valid From Sep-24 @ 12:00 UTC
(2 hours ago)
Valid To Sep-25 @ 12:00 UTC
(in 22 hours)
Sep-24 @ 12:00 - Sep-24 @ 18:00
Wind Visibility
280° at 12 knots 10,000+ meters
Clouds
  • No significant clouds
Conditions
Becoming Sep-24 @ 18:00 - Sep-25 @ 07:00
Wind Visibility
340° at 7 knots 10,000+ meters
Clouds
  • No significant clouds
Conditions
Becoming Sep-25 @ 07:00 - Sep-25 @ 12:00
Wind Visibility
280° at 14 knots 10,000+ meters
Clouds
  • No significant clouds
Conditions